Terminal Aerodrome Forecast
Issued by NWS

Home | Current Version | Previous Version | Text Only | Print | Product List | Glossary On
Versions: 1 2 3 4 5 6 7 8 9 10 11 12 13 14 15 16 17 18 19 20 21 22 23 24 25
000
FTUS43 KGRR 270700 AAA
TAFBTL
TAF AMD
KBTL 270754Z 2708/2806 19006KT P6SM VCSH OVC035
     FM271000 17009KT 4SM -SHRA BR OVC015
     FM271400 20010KT 2SM -DZ BR OVC008
     FM272000 25015G25KT P6SM OVC015
     FM272300 26012G19KT P6SM OVC015
     FM280100 28009KT P6SM OVC025=

USA.gov is the U.S. government's official web portal to all federal, state and local government web resources and services.